createdAt,value
2022-09-28T00:01:28.906Z,29.17
2022-09-28T00:03:59.832Z,24.37
2022-09-28T00:06:28.486Z,26.07
2022-09-28T00:08:55.227Z,22.23
2022-09-28T00:11:22.766Z,20.67
2022-09-28T00:13:51.652Z,22.27
2022-09-28T00:16:19.734Z,20.60
2022-09-28T00:18:46.676Z,20.87
2022-09-28T00:21:16.075Z,17.37
2022-09-28T00:24:01.569Z,15.73
2022-09-28T00:26:31.274Z,14.57
2022-09-28T00:29:02.046Z,13.23
2022-09-28T00:31:32.667Z,13.53
2022-09-28T00:34:00.847Z,11.07
2022-09-28T00:36:34.098Z,12.80
2022-09-28T00:39:08.331Z,9.80
2022-09-28T00:41:35.838Z,7.83
2022-09-28T00:44:21.567Z,8.87
2022-09-28T00:46:52.465Z,7.37
2022-09-28T00:49:20.129Z,7.87
2022-09-28T00:51:47.300Z,7.10
2022-09-28T00:54:15.256Z,6.33
2022-09-28T00:56:46.162Z,6.10
2022-09-28T00:59:13.413Z,8.20
2022-09-28T01:01:46.017Z,5.90
2022-09-28T01:04:18.612Z,7.67
2022-09-28T01:06:45.565Z,6.20
2022-09-28T01:09:12.632Z,5.90
2022-09-28T01:11:42.473Z,5.83
2022-09-28T01:14:10.790Z,6.20
2022-09-28T01:16:56.105Z,5.80
2022-09-28T01:19:31.965Z,5.43
2022-09-28T01:22:26.724Z,3.90
2022-09-28T01:25:00.451Z,5.80
2022-09-28T01:27:32.940Z,4.10
2022-09-28T01:30:09.639Z,5.67
2022-09-28T01:33:04.829Z,6.53
2022-09-28T01:35:35.649Z,4.43
2022-09-28T01:38:10.592Z,8.80
2022-09-28T01:40:37.385Z,5.23
2022-09-28T01:43:21.692Z,5.23
2022-09-28T01:46:10.910Z,5.30
2022-09-28T01:49:00.537Z,4.90
2022-09-28T01:51:43.305Z,5.23
2022-09-28T01:54:13.031Z,4.47
2022-09-28T01:56:45.068Z,3.83
2022-09-28T01:59:20.469Z,5.10
2022-09-28T02:01:58.647Z,6.63
2022-09-28T02:04:27.420Z,4.30
2022-09-28T02:07:04.832Z,3.77
2022-09-28T02:09:37.101Z,4.53
2022-09-28T02:12:11.665Z,4.27
2022-09-28T02:14:38.753Z,3.60
2022-09-28T02:17:05.431Z,4.67
2022-09-28T02:19:34.334Z,4.10
2022-09-28T02:22:16.906Z,3.33
2022-09-28T02:24:57.956Z,4.93
2022-09-28T02:27:36.601Z,5.60
2022-09-28T02:30:04.337Z,2.23
2022-09-28T02:32:31.845Z,3.10
2022-09-28T02:35:00.817Z,4.07
2022-09-28T02:37:27.819Z,3.03
2022-09-28T02:39:56.833Z,2.53
2022-09-28T02:42:45.893Z,3.70
2022-09-28T02:45:25.451Z,3.57
2022-09-28T02:48:02.602Z,2.83
2022-09-28T02:50:50.601Z,2.63
2022-09-28T02:53:51.047Z,4.93
2022-09-28T02:56:17.903Z,3.17
2022-09-28T02:59:03.448Z,3.73
2022-09-28T03:01:48.894Z,4.77
2022-09-28T03:04:31.433Z,4.20
2022-09-28T03:07:06.015Z,4.17
2022-09-28T03:09:40.091Z,3.53
2022-09-28T03:12:11.267Z,4.23
2022-09-28T03:14:37.987Z,5.40
2022-09-28T03:17:04.885Z,5.43
2022-09-28T03:19:34.685Z,5.63
2022-09-28T03:22:01.854Z,8.10
2022-09-28T03:24:30.856Z,7.00
2022-09-28T03:26:57.564Z,8.87
2022-09-28T03:29:31.476Z,7.40
2022-09-28T03:31:58.207Z,9.17
2022-09-28T03:34:27.534Z,7.83
2022-09-28T03:36:54.288Z,8.53
2022-09-28T03:39:20.974Z,8.13
2022-09-28T03:41:47.686Z,8.17
2022-09-28T03:44:14.438Z,11.17
2022-09-28T03:46:41.271Z,11.03
2022-09-28T03:49:13.966Z,8.57
2022-09-28T03:51:45.578Z,14.00
2022-09-28T03:54:13.029Z,13.30
2022-09-28T03:56:40.583Z,11.20
2022-09-28T03:59:09.533Z,10.37
2022-09-28T04:01:36.353Z,9.43
2022-09-28T04:04:03.173Z,11.67
2022-09-28T04:06:29.886Z,14.37
2022-09-28T04:09:01.533Z,10.53
2022-09-28T04:11:43.076Z,13.73
2022-09-28T04:14:19.633Z,14.37
2022-09-28T04:16:48.779Z,15.53
2022-09-28T04:19:17.964Z,17.10
2022-09-28T04:21:44.979Z,17.47
2022-09-28T04:24:11.806Z,17.27
2022-09-28T04:26:38.600Z,18.00
2022-09-28T04:29:20.766Z,18.20
2022-09-28T04:31:51.485Z,16.37
2022-09-28T04:34:20.034Z,16.30
2022-09-28T04:36:47.025Z,22.00
2022-09-28T04:39:14.589Z,18.53
2022-09-28T04:41:42.013Z,17.87
2022-09-28T04:44:09.112Z,17.53
2022-09-28T04:46:38.136Z,16.20
2022-09-28T04:49:07.049Z,17.43
2022-09-28T04:51:33.844Z,17.73
2022-09-28T04:54:00.540Z,18.17
2022-09-28T04:56:27.254Z,19.33
2022-09-28T04:58:56.428Z,23.53
2022-09-28T05:01:23.735Z,19.40
2022-09-28T05:03:53.387Z,17.53
2022-09-28T05:06:20.250Z,14.50
2022-09-28T05:08:47.262Z,20.03
2022-09-28T05:11:14.193Z,18.40
2022-09-28T05:13:42.875Z,17.67
2022-09-28T05:16:11.936Z,18.43
2022-09-28T05:18:41.003Z,15.93
2022-09-28T05:21:12.757Z,16.93
2022-09-28T05:23:40.232Z,17.90
2022-09-28T05:26:07.227Z,18.97
2022-09-28T05:28:36.146Z,17.23
2022-09-28T05:31:03.950Z,15.67
2022-09-28T05:33:36.347Z,17.07
2022-09-28T05:36:03.114Z,15.80
2022-09-28T05:38:30.067Z,15.53
2022-09-28T05:40:57.172Z,20.10
2022-09-28T05:43:24.019Z,16.40
2022-09-28T05:45:55.318Z,16.50
2022-09-28T05:48:25.546Z,19.20
2022-09-28T05:50:52.764Z,16.43
2022-09-28T05:53:19.675Z,20.20
2022-09-28T05:55:46.741Z,17.30
2022-09-28T05:58:15.597Z,19.97
2022-09-28T06:00:42.332Z,20.20
2022-09-28T06:03:14.908Z,17.97
2022-09-28T06:05:44.116Z,18.40
2022-09-28T06:08:15.837Z,17.30
2022-09-28T06:10:42.619Z,16.97
2022-09-28T06:13:11.960Z,25.47
2022-09-28T06:15:39.225Z,15.53
2022-09-28T06:18:07.691Z,16.73
2022-09-28T06:20:35.886Z,16.90
2022-09-28T06:23:02.672Z,17.57
2022-09-28T06:25:32.343Z,20.50
2022-09-28T06:28:00.553Z,16.80
2022-09-28T06:30:27.893Z,16.40
2022-09-28T06:32:58.527Z,19.93
2022-09-28T06:35:26.145Z,15.63
2022-09-28T06:37:53.194Z,17.03
2022-09-28T06:40:20.691Z,17.10
2022-09-28T06:42:57.050Z,16.93
2022-09-28T06:45:27.070Z,18.00
2022-09-28T06:48:00.591Z,14.57
2022-09-28T06:50:29.246Z,16.73
2022-09-28T06:52:57.240Z,14.63
2022-09-28T06:55:24.109Z,14.27
2022-09-28T06:57:58.360Z,13.93
2022-09-28T07:00:26.469Z,14.33
2022-09-28T07:02:55.890Z,12.67
2022-09-28T07:05:26.958Z,14.90
2022-09-28T07:07:55.366Z,17.23
2022-09-28T07:10:25.822Z,17.03
2022-09-28T07:12:52.618Z,15.73
2022-09-28T07:15:19.980Z,13.87
2022-09-28T07:17:58.701Z,16.13
2022-09-28T07:20:31.266Z,16.10
2022-09-28T07:23:15.305Z,15.70
2022-09-28T07:25:47.975Z,14.17
2022-09-28T07:28:17.443Z,13.50
2022-09-28T07:30:49.120Z,12.03
2022-09-28T07:33:18.565Z,13.53
2022-09-28T07:35:52.481Z,13.00
2022-09-28T07:38:19.250Z,16.17
2022-09-28T07:41:12.211Z,13.93
2022-09-28T07:43:40.042Z,13.23
2022-09-28T07:46:09.492Z,13.37
2022-09-28T07:48:36.956Z,14.47
2022-09-28T07:51:03.862Z,12.77
2022-09-28T07:53:31.110Z,11.50
2022-09-28T07:56:09.085Z,11.60
2022-09-28T07:58:37.009Z,11.87
2022-09-28T08:01:07.859Z,10.53
2022-09-28T08:03:35.272Z,19.53
2022-09-28T08:06:03.599Z,12.30
2022-09-28T08:08:33.784Z,13.73
2022-09-28T08:11:02.781Z,14.43
2022-09-28T08:13:31.130Z,12.80
2022-09-28T08:16:03.133Z,14.40
2022-09-28T08:18:30.890Z,12.33
2022-09-28T08:21:16.033Z,14.87
2022-09-28T08:23:42.736Z,14.83
2022-09-28T08:26:14.575Z,13.03
2022-09-28T08:28:43.356Z,17.50
2022-09-28T08:31:15.044Z,16.73
2022-09-28T08:33:44.482Z,11.63
2022-09-28T08:36:11.275Z,10.43
2022-09-28T08:38:38.019Z,11.10
2022-09-28T08:41:14.046Z,11.07
2022-09-28T08:43:53.151Z,9.10
2022-09-28T08:46:25.022Z,12.20
2022-09-28T08:49:23.706Z,13.17
2022-09-28T08:52:11.630Z,10.63
2022-09-28T08:54:48.889Z,15.23
2022-09-28T08:57:33.796Z,12.53
2022-09-28T09:00:00.825Z,14.33
2022-09-28T09:02:36.237Z,8.13
2022-09-28T09:05:05.050Z,8.97
2022-09-28T09:07:55.002Z,12.03
2022-09-28T09:10:45.990Z,9.37
2022-09-28T09:13:27.363Z,8.13
2022-09-28T09:15:58.001Z,10.17
2022-09-28T09:18:35.048Z,9.90
2022-09-28T09:21:27.490Z,9.47
2022-09-28T09:24:01.633Z,8.97
2022-09-28T09:26:39.398Z,7.83
2022-09-28T09:29:37.597Z,8.87
2022-09-28T09:32:30.740Z,9.07
2022-09-28T09:35:24.963Z,6.27
2022-09-28T09:38:19.306Z,7.43
2022-09-28T09:40:56.671Z,7.33
2022-09-28T09:43:40.540Z,7.23
2022-09-28T09:46:19.287Z,8.10
2022-09-28T09:49:07.219Z,6.50
2022-09-28T09:52:01.892Z,7.13
2022-09-28T09:54:38.258Z,7.43
2022-09-28T09:57:25.332Z,10.10
2022-09-28T09:59:52.125Z,5.87
2022-09-28T10:02:29.988Z,5.93
2022-09-28T10:05:14.337Z,5.87
2022-09-28T10:07:49.724Z,7.40
2022-09-28T10:10:21.535Z,6.20
2022-09-28T10:12:49.787Z,5.33
2022-09-28T10:15:19.473Z,8.80
2022-09-28T10:17:50.880Z,7.23
2022-09-28T10:20:18.848Z,5.63
2022-09-28T10:22:45.622Z,4.47
2022-09-28T10:25:15.073Z,5.87
2022-09-28T10:27:47.458Z,4.80
2022-09-28T10:30:23.309Z,4.50
2022-09-28T10:32:52.607Z,6.87
2022-09-28T10:35:19.289Z,5.60
2022-09-28T10:38:04.637Z,6.17
2022-09-28T10:40:46.916Z,5.83
2022-09-28T10:43:18.977Z,6.60
2022-09-28T10:45:48.071Z,4.10
2022-09-28T10:48:21.132Z,4.83
2022-09-28T10:51:00.732Z,3.83
2022-09-28T10:53:27.655Z,10.17
2022-09-28T10:56:02.442Z,3.00
2022-09-28T10:58:44.295Z,5.43
2022-09-28T11:01:20.796Z,3.03
2022-09-28T11:04:08.095Z,3.13
2022-09-28T11:06:38.919Z,6.37
2022-09-28T11:09:34.893Z,3.50
2022-09-28T11:12:05.970Z,3.43
2022-09-28T11:14:42.501Z,4.57
2022-09-28T11:17:34.456Z,3.00
2022-09-28T11:20:05.799Z,3.33
2022-09-28T11:22:32.523Z,5.27
2022-09-28T11:25:20.921Z,3.63
2022-09-28T11:27:53.984Z,4.17
2022-09-28T11:30:24.622Z,3.60
2022-09-28T11:32:51.594Z,4.83
2022-09-28T11:35:29.462Z,2.00
2022-09-28T11:38:15.190Z,5.07
2022-09-28T11:41:00.461Z,4.73
2022-09-28T11:43:38.502Z,3.30
2022-09-28T11:46:11.978Z,3.00
2022-09-28T11:48:47.702Z,2.67
2022-09-28T11:51:26.209Z,2.23
2022-09-28T11:54:00.637Z,2.13
2022-09-28T11:56:38.823Z,6.93
2022-09-28T11:59:15.957Z,2.07
2022-09-28T12:01:48.576Z,3.00
2022-09-28T12:04:39.562Z,4.43
2022-09-28T12:07:32.591Z,5.87
2022-09-28T12:10:11.631Z,2.97
2022-09-28T12:12:45.740Z,5.37
2022-09-28T12:15:20.292Z,2.73
2022-09-28T12:17:50.902Z,6.50
2022-09-28T12:20:33.055Z,3.50
2022-09-28T12:23:00.515Z,3.60
2022-09-28T12:25:28.784Z,3.80
2022-09-28T12:28:04.326Z,2.50
2022-09-28T12:30:35.960Z,6.37
2022-09-28T12:33:07.483Z,3.40
2022-09-28T12:36:05.027Z,2.87
2022-09-28T12:38:45.989Z,2.80
2022-09-28T12:41:33.840Z,4.03
2022-09-28T12:44:17.663Z,5.20
2022-09-28T12:47:16.761Z,3.77
2022-09-28T12:50:37.480Z,4.03
2022-09-28T12:53:04.040Z,5.23
2022-09-28T12:55:59.840Z,4.13
2022-09-28T12:58:48.483Z,3.20
2022-09-28T13:01:24.393Z,4.50
2022-09-28T13:03:51.102Z,4.07
2022-09-28T13:06:33.530Z,5.37
2022-09-28T13:09:06.259Z,3.93
2022-09-28T13:11:42.599Z,4.20
2022-09-28T13:14:40.178Z,4.37
2022-09-28T13:17:34.395Z,2.73
2022-09-28T13:20:27.157Z,3.60
2022-09-28T13:23:05.280Z,5.50
2022-09-28T13:25:36.242Z,4.23
2022-09-28T13:28:06.320Z,2.80
2022-09-28T13:30:34.674Z,4.67
2022-09-28T13:33:05.154Z,5.90
2022-09-28T13:35:32.139Z,4.77
2022-09-28T13:38:20.756Z,3.47
2022-09-28T13:41:06.055Z,6.90
2022-09-28T13:43:45.318Z,2.20
2022-09-28T13:46:34.998Z,3.33
2022-09-28T13:49:07.420Z,5.67
2022-09-28T13:51:42.562Z,4.43
2022-09-28T13:54:41.526Z,5.30
2022-09-28T13:57:38.321Z,3.03
2022-09-28T14:00:27.559Z,4.90
2022-09-28T14:03:05.977Z,3.20
2022-09-28T14:05:46.638Z,1.80
2022-09-28T14:08:31.075Z,3.60
2022-09-28T14:11:19.405Z,2.83
2022-09-28T14:14:08.099Z,2.37
2022-09-28T14:16:38.768Z,2.63
2022-09-28T14:19:09.262Z,2.80
2022-09-28T14:21:53.598Z,3.23
2022-09-28T14:24:31.340Z,3.77
2022-09-28T14:27:20.053Z,5.33
2022-09-28T14:29:53.657Z,8.30
2022-09-28T14:32:26.282Z,4.90
2022-09-28T14:35:01.259Z,3.00
2022-09-28T14:37:50.435Z,4.57
2022-09-28T14:40:39.846Z,2.43
2022-09-28T14:43:33.919Z,4.73
2022-09-28T14:46:12.446Z,3.73
2022-09-28T14:48:58.002Z,3.20
2022-09-28T14:51:30.164Z,10.83
2022-09-28T14:54:24.417Z,3.60
2022-09-28T14:57:00.118Z,2.80
2022-09-28T14:59:32.380Z,7.53
2022-09-28T15:02:08.946Z,8.40
2022-09-28T15:04:39.304Z,3.57
2022-09-28T15:07:06.050Z,4.70
2022-09-28T15:09:34.356Z,9.83
2022-09-28T15:12:16.652Z,6.47
2022-09-28T15:15:08.224Z,6.10
2022-09-28T15:17:40.638Z,7.10
2022-09-28T15:20:30.634Z,5.70
2022-09-28T15:23:00.445Z,6.00
2022-09-28T15:25:35.962Z,5.43
2022-09-28T15:28:17.044Z,3.63
2022-09-28T15:30:46.344Z,3.23
2022-09-28T15:33:45.335Z,8.03
2022-09-28T15:36:26.756Z,25.73
2022-09-28T15:39:03.018Z,13.57
2022-09-28T15:41:30.164Z,7.50
2022-09-28T15:44:15.375Z,7.13
2022-09-28T15:46:44.236Z,4.43
2022-09-28T15:49:24.351Z,5.97
2022-09-28T15:51:53.408Z,5.63
2022-09-28T15:54:42.026Z,5.20
2022-09-28T15:57:29.732Z,10.57
2022-09-28T15:59:59.532Z,4.73
2022-09-28T16:02:26.395Z,3.23
2022-09-28T16:04:55.440Z,3.77
2022-09-28T16:07:41.532Z,3.73
2022-09-28T16:10:14.433Z,4.47
2022-09-28T16:12:48.805Z,5.33
2022-09-28T16:15:23.034Z,6.90
2022-09-28T16:17:55.457Z,4.70
2022-09-28T16:20:31.932Z,6.87
2022-09-28T16:23:05.926Z,4.77
2022-09-28T16:25:35.817Z,6.53
2022-09-28T16:28:02.531Z,8.23
2022-09-28T16:30:32.396Z,12.00
2022-09-28T16:33:05.182Z,5.63
2022-09-28T16:35:41.088Z,5.73
2022-09-28T16:38:11.962Z,7.60
2022-09-28T16:40:43.114Z,4.93
2022-09-28T16:43:21.001Z,5.30
2022-09-28T16:45:47.822Z,7.27
2022-09-28T16:48:19.280Z,5.57
2022-09-28T16:50:46.599Z,9.97
2022-09-28T16:53:34.022Z,9.77
2022-09-28T16:56:03.526Z,10.07
2022-09-28T16:58:31.574Z,6.93
2022-09-28T17:00:58.836Z,6.67
2022-09-28T17:03:30.913Z,9.93
2022-09-28T17:05:57.684Z,6.93
2022-09-28T17:08:24.810Z,8.23
2022-09-28T17:11:13.999Z,6.33
2022-09-28T17:13:42.224Z,5.73
2022-09-28T17:16:13.905Z,5.17
2022-09-28T17:18:41.056Z,8.00
2022-09-28T17:21:11.796Z,8.03
2022-09-28T17:23:38.670Z,6.63
2022-09-28T17:26:05.518Z,8.77
2022-09-28T17:28:33.721Z,7.83
2022-09-28T17:31:02.860Z,6.57
2022-09-28T17:33:31.839Z,6.87
2022-09-28T17:36:02.389Z,5.90
2022-09-28T17:38:32.172Z,5.67
2022-09-28T17:40:58.929Z,5.90
2022-09-28T17:43:25.844Z,7.20
2022-09-28T17:45:52.672Z,19.83
2022-09-28T17:48:24.280Z,8.27
2022-09-28T17:50:51.287Z,6.70
2022-09-28T17:53:17.983Z,7.73
2022-09-28T17:55:44.869Z,7.33
2022-09-28T17:58:22.024Z,8.90
2022-09-28T18:00:52.533Z,7.07
2022-09-28T18:03:21.088Z,9.33
2022-09-28T18:05:53.767Z,7.67
2022-09-28T18:08:24.604Z,8.60
2022-09-28T18:10:51.329Z,9.97
2022-09-28T18:13:18.158Z,9.13
2022-09-28T18:15:45.150Z,11.33
2022-09-28T18:18:14.586Z,9.73
2022-09-28T18:20:42.094Z,9.13
2022-09-28T18:23:08.844Z,10.87
2022-09-28T18:25:41.428Z,7.43
2022-09-28T18:28:08.281Z,7.40
2022-09-28T18:30:40.344Z,10.77
2022-09-28T18:33:07.431Z,8.03
2022-09-28T18:35:34.403Z,10.67
2022-09-28T18:38:01.214Z,8.97
2022-09-28T18:40:28.029Z,10.07
2022-09-28T18:42:54.773Z,9.50
2022-09-28T18:45:21.573Z,12.20
2022-09-28T18:47:48.396Z,9.87
2022-09-28T18:50:18.193Z,8.40
2022-09-28T18:52:45.047Z,10.03
2022-09-28T18:55:12.215Z,12.13
2022-09-28T18:57:41.304Z,8.77
2022-09-28T19:00:09.834Z,12.03
2022-09-28T19:02:39.032Z,9.03
2022-09-28T19:05:06.524Z,8.97
2022-09-28T19:07:33.821Z,7.80
2022-09-28T19:10:00.538Z,6.10
2022-09-28T19:12:29.433Z,7.13
2022-09-28T19:14:59.642Z,7.07
2022-09-28T19:17:26.483Z,7.77
2022-09-28T19:19:53.262Z,5.87
2022-09-28T19:22:19.949Z,5.47
2022-09-28T19:24:48.930Z,8.57
2022-09-28T19:27:20.273Z,3.87
2022-09-28T19:29:49.581Z,6.63
2022-09-28T19:32:16.315Z,4.43
2022-09-28T19:34:43.072Z,6.03
2022-09-28T19:37:09.829Z,5.57
2022-09-28T19:39:36.575Z,4.60
2022-09-28T19:42:03.406Z,3.90
2022-09-28T19:44:31.713Z,5.30
2022-09-28T19:47:10.125Z,4.40
2022-09-28T19:49:38.099Z,3.00
2022-09-28T19:52:13.372Z,5.10
2022-09-28T19:54:57.868Z,4.57
2022-09-28T19:57:29.214Z,3.40
2022-09-28T20:00:00.882Z,4.90
2022-09-28T20:02:29.195Z,7.40
2022-09-28T20:04:59.491Z,13.80
2022-09-28T20:07:26.426Z,2.97
2022-09-28T20:09:53.171Z,4.00
2022-09-28T20:12:20.034Z,6.40
2022-09-28T20:14:46.977Z,3.37
2022-09-28T20:17:13.743Z,3.70
2022-09-28T20:19:42.677Z,3.93
2022-09-28T20:22:09.406Z,4.03
2022-09-28T20:24:38.355Z,4.67
2022-09-28T20:27:05.115Z,5.40
2022-09-28T20:29:33.469Z,4.60
2022-09-28T20:32:00.547Z,4.60
2022-09-28T20:34:27.308Z,5.53
2022-09-28T20:36:56.126Z,3.87
2022-09-28T20:39:22.883Z,3.90
2022-09-28T20:41:49.653Z,5.80
2022-09-28T20:44:19.234Z,5.23
2022-09-28T20:46:52.917Z,4.30
2022-09-28T20:49:19.676Z,4.97
2022-09-28T20:51:46.447Z,5.20
2022-09-28T20:54:13.177Z,6.57
2022-09-28T20:56:40.024Z,6.77
2022-09-28T20:59:11.309Z,7.93
2022-09-28T21:01:38.342Z,6.03
2022-09-28T21:04:08.215Z,6.77
2022-09-28T21:06:41.396Z,6.93
2022-09-28T21:09:08.911Z,6.33
2022-09-28T21:11:35.767Z,5.07
2022-09-28T21:14:04.191Z,4.33
2022-09-28T21:16:31.620Z,4.97
2022-09-28T21:19:01.429Z,6.70
2022-09-28T21:21:30.514Z,7.90
2022-09-28T21:23:57.637Z,6.57
2022-09-28T21:26:28.021Z,6.23
2022-09-28T21:29:11.136Z,8.13
2022-09-28T21:31:39.581Z,10.00
2022-09-28T21:34:06.957Z,5.57
2022-09-28T21:36:36.237Z,7.50
2022-09-28T21:39:05.028Z,5.40
2022-09-28T21:41:39.623Z,10.23
2022-09-28T21:44:08.858Z,8.03
2022-09-28T21:46:37.976Z,6.93
2022-09-28T21:49:06.286Z,10.13
2022-09-28T21:51:33.255Z,11.27
2022-09-28T21:54:02.252Z,8.43
2022-09-28T21:56:28.977Z,9.00
2022-09-28T21:58:55.784Z,9.77
2022-09-28T22:01:25.708Z,8.87
2022-09-28T22:03:56.233Z,9.83
2022-09-28T22:06:23.941Z,10.67
2022-09-28T22:08:50.927Z,11.20
2022-09-28T22:11:19.397Z,11.70
2022-09-28T22:13:50.896Z,9.07
2022-09-28T22:16:18.807Z,11.83
2022-09-28T22:18:45.750Z,8.73
2022-09-28T22:21:19.656Z,9.93
2022-09-28T22:23:46.368Z,10.13
2022-09-28T22:26:13.151Z,10.30
2022-09-28T22:28:40.206Z,10.37
2022-09-28T22:31:07.018Z,12.60
2022-09-28T22:33:34.151Z,12.20
2022-09-28T22:36:05.600Z,10.87
2022-09-28T22:38:35.229Z,12.07
2022-09-28T22:41:03.827Z,14.53
2022-09-28T22:43:30.739Z,10.50
2022-09-28T22:46:04.747Z,11.87
2022-09-28T22:48:31.704Z,13.67
2022-09-28T22:51:01.149Z,15.47
2022-09-28T22:53:28.573Z,20.23
2022-09-28T22:55:56.335Z,27.23
2022-09-28T22:58:23.712Z,20.43
2022-09-28T23:00:50.585Z,20.37
2022-09-28T23:03:17.881Z,22.43
2022-09-28T23:05:54.426Z,23.53
2022-09-28T23:08:21.462Z,21.10
2022-09-28T23:10:50.687Z,23.27
2022-09-28T23:13:17.616Z,24.10
2022-09-28T23:15:55.019Z,28.30
2022-09-28T23:18:21.847Z,23.60
2022-09-28T23:20:55.638Z,22.57
2022-09-28T23:23:24.739Z,27.17
2022-09-28T23:25:51.839Z,26.07
2022-09-28T23:28:19.336Z,23.30
2022-09-28T23:30:46.186Z,23.87
2022-09-28T23:33:16.712Z,22.30
2022-09-28T23:35:44.031Z,25.70
2022-09-28T23:38:13.531Z,23.07
2022-09-28T23:40:40.885Z,24.63
2022-09-28T23:43:08.084Z,26.47
2022-09-28T23:45:34.823Z,25.67
2022-09-28T23:48:01.977Z,25.37
2022-09-28T23:50:28.687Z,23.33
2022-09-28T23:52:57.580Z,24.23
2022-09-28T23:55:26.622Z,26.23
2022-09-28T23:57:55.704Z,19.50
